aviador You're here:

YCAR Decoded Metar

CARNARVON in AUSTRALIA
Report Time2017-08-21 13:00:00
UTC Time2017-08-21 13:56:54
Flight Rules vfr VFR
Wind170° at 14 kt
W.Decomp.*RWY 18: 13.8 kt HW 2.4 kt LCW
RWY 22: 9.0 kt HW 10.7 kt LCW
W.Rank170° ranks 1
Current wind is above 170° avg. (12.5)
Visibility9999 m
Phenomena:N/A
Clouds:N/A
Expected CloudBase > 2,400 ft AGL from Temp-Dew spread
CeilingNone
Temp18°C (ISA +3)
Dew Point12°C (68% RH)
AAT13.6°C
QNH1016 hPa
Density Alt472 ft
Elevation26 ft
Report Wrong Elevation
Raw Report
METAR YCAR 211300Z AUTO 17014KT 9999 // NCD 18/12 Q1016=

Extra information for YCAR:More info

Metar Taf Metar & Taf Last 4 Metars F.Rules Stats Wind Profile Meteogram Temp Stats Airport Information Weather charts Add Link Nearby VenuesMetar ALERT Operation Metar Decoded Social comments